»·PEaware :: USC243 KMRY-KLAS

USC243 :: KMRY-KLAS

FLIGHT INFORMATION

Flight Status: Arrived
Operator: Unknown
More flights by this operator :: More flights under this callsign
Pilot: Andy P. (22680)
Aircraft: GATES LEARJET LEARJET 35/36
(LJ35)
More flights by this aircraft type
Origin: KMRY Monterey Peninsula
United States
Destination: KLAS McCarran Intl
United States
More flights between these airports :: More routes between these airports
Route: SNS PXN NTELL BIH LIDAT J92 BTY SUNST4
File this flight plan on PilotEdge
Remarks:
Altitude:
(Current/Filed)
35,000ft
Speed:
(Current/Filed)
465kts
Departed: 23-Jul-19 01:23 PM
Arrived: 23-Jul-19 02:22 PM
Distance/Time
Traveled:
326nm/0:59
Distance/Time
To Go:
Arrived

Flight Plot

Page will automatically refresh every two minutes.

Flight plan parsing failed; only flown route is shown


Map Options




Map Legend


Flown Route
Filed Route
Departure Airport
Arrival Airport
Navaid (VOR, NDB)
Fix

Horizontal Profiles

Position Reports

Time Latitude Longitude Heading Altitude Ground
Speed
23-Jul-19 13:02 36.589337 -121.857861 343 207ft 0kts
23-Jul-19 13:03 36.589337 -121.857861 343 207ft 0kts
23-Jul-19 13:04 36.589337 -121.857861 343 207ft 0kts
23-Jul-19 13:05 36.589337 -121.857861 343 207ft 0kts
23-Jul-19 13:06 36.589337 -121.857861 343 207ft 0kts
23-Jul-19 13:07 36.589337 -121.857861 343 207ft 0kts
23-Jul-19 13:08 36.589337 -121.857861 343 207ft 0kts
23-Jul-19 13:10 36.589337 -121.857861 343 207ft 0kts
23-Jul-19 13:11 36.589337 -121.857861 343 207ft 0kts
23-Jul-19 13:12 36.589337 -121.857861 343 207ft 0kts
23-Jul-19 13:13 36.589337 -121.857861 343 207ft 0kts
23-Jul-19 13:14 36.589337 -121.857861 343 207ft 0kts
23-Jul-19 13:15 36.589337 -121.857861 343 207ft 0kts
23-Jul-19 13:16 36.589337 -121.857861 343 207ft 0kts
23-Jul-19 13:17 36.589492 -121.857776 71 207ft 1kts
23-Jul-19 13:18 36.589390 -121.854051 107 207ft 12kts
23-Jul-19 13:19 36.587436 -121.848069 113 208ft 23kts
23-Jul-19 13:20 36.585026 -121.841398 112 207ft 15kts
23-Jul-19 13:21 36.583646 -121.837355 111 208ft 0kts
23-Jul-19 13:22 36.582855 -121.834471 92 208ft 15kts
23-Jul-19 13:23 36.591187 -121.856431 296 688ft 176kts
23-Jul-19 13:24 36.627479 -121.887754 344 2442ft 194kts
23-Jul-19 13:25 36.687713 -121.907299 354 5354ft 270kts
23-Jul-19 13:26 36.715051 -121.834556 103 9083ft 276kts
23-Jul-19 13:27 36.690117 -121.734814 107 12060ft 345kts
23-Jul-19 13:28 36.666528 -121.602668 98 15947ft 418kts
23-Jul-19 13:29 36.674222 -121.452678 88 20260ft 448kts
23-Jul-19 13:30 36.683933 -121.293492 88 23919ft 472kts
23-Jul-19 13:30 36.692583 -121.155191 88 26231ft 487kts
23-Jul-19 13:32 36.704853 -120.955337 89 28757ft 502kts
23-Jul-19 13:32 36.714222 -120.813222 88 31314ft 486kts
23-Jul-19 13:33 36.742789 -120.649021 80 33850ft 487kts
23-Jul-19 13:34 36.777191 -120.484464 81 35036ft 495kts
23-Jul-19 13:36 36.817500 -120.290477 81 35023ft 495kts
23-Jul-19 13:36 36.846116 -120.151676 81 35023ft 496kts
23-Jul-19 13:37 36.880247 -119.984948 81 35023ft 496kts
23-Jul-19 13:38 36.922086 -119.820189 73 35028ft 502kts
23-Jul-19 13:39 36.973879 -119.658022 73 35031ft 502kts
23-Jul-19 13:40 37.025474 -119.495779 73 35057ft 502kts
23-Jul-19 13:41 37.076983 -119.333016 73 35112ft 502kts
23-Jul-19 13:42 37.128117 -119.170533 73 35183ft 502kts
23-Jul-19 13:43 37.179186 -119.007338 74 35279ft 501kts
23-Jul-19 13:44 37.229864 -118.844440 74 35336ft 501kts
23-Jul-19 13:45 37.280427 -118.680966 74 35312ft 503kts
23-Jul-19 13:46 37.330892 -118.516869 74 35280ft 504kts
23-Jul-19 13:47 37.374964 -118.350663 85 35257ft 495kts
23-Jul-19 13:48 37.386733 -118.180193 92 35258ft 489kts
23-Jul-19 13:49 37.395528 -118.009189 92 35266ft 489kts
23-Jul-19 13:50 37.404029 -117.838557 92 35281ft 489kts
23-Jul-19 13:51 37.412282 -117.667808 92 35290ft 489kts
23-Jul-19 13:52 37.420280 -117.497182 92 35303ft 488kts
23-Jul-19 13:53 37.422366 -117.327390 109 35301ft 473kts
23-Jul-19 13:54 37.346528 -117.208380 153 35291ft 435kts
23-Jul-19 13:55 37.245643 -117.122398 150 35256ft 438kts
23-Jul-19 13:56 37.145141 -117.036618 150 35182ft 439kts
23-Jul-19 13:57 37.048337 -116.954930 150 32215ft 419kts
23-Jul-19 13:58 36.957456 -116.878576 150 31457ft 385kts
23-Jul-19 13:59 36.861837 -116.798716 149 29729ft 446kts
23-Jul-19 14:00 36.766582 -116.698808 133 27863ft 447kts
23-Jul-19 14:01 36.682700 -116.579254 133 26004ft 472kts
23-Jul-19 14:02 36.595834 -116.455839 133 24001ft 464kts
23-Jul-19 14:03 36.512769 -116.338283 133 22149ft 442kts
23-Jul-19 14:04 36.433536 -116.226520 133 20457ft 404kts
23-Jul-19 14:05 36.366712 -116.132565 133 19170ft 330kts
23-Jul-19 14:06 36.307850 -116.050070 133 18045ft 314kts
23-Jul-19 14:07 36.250510 -115.969862 133 16948ft 309kts
23-Jul-19 14:08 36.196857 -115.887337 118 15860ft 310kts
23-Jul-19 14:09 36.164852 -115.788665 114 14929ft 308kts
23-Jul-19 14:10 36.133089 -115.690032 114 13993ft 305kts
23-Jul-19 14:11 36.102207 -115.594360 114 13066ft 288kts
23-Jul-19 14:12 36.075648 -115.512369 114 12300ft 272kts
23-Jul-19 14:13 36.047738 -115.425357 108 11451ft 274kts
23-Jul-19 14:14 36.043491 -115.331507 91 10131ft 259kts
23-Jul-19 14:15 36.035190 -115.247059 101 8638ft 246kts
23-Jul-19 14:16 36.023612 -115.163004 102 6733ft 247kts
23-Jul-19 14:17 36.019180 -115.081406 89 5069ft 225kts
23-Jul-19 14:18 36.049495 -115.040661 353 3693ft 162kts
23-Jul-19 14:19 36.074018 -115.072357 268 2930ft 141kts
23-Jul-19 14:20 36.073644 -115.118756 268 2332ft 132kts
23-Jul-19 14:21 36.074076 -115.144473 293 2184ft 26kts
23-Jul-19 14:22 36.077560 -115.146578 352 2184ft 0kts
23-Jul-19 14:23 36.077540 -115.141200 90 2184ft 31kts
23-Jul-19 14:24 36.077533 -115.127608 85 2184ft 33kts
23-Jul-19 14:25 36.082977 -115.125666 96 2184ft 7kts

Navigation Log

Ident Type
Flight plan parsing failed, navigation log unavailable